Time;durP1;ratioP1;P1;durP2;ratioP2;P2;SDS_P1;SDS_P2;PMS_P1;PMS_P2;Temp;Humidity;BMP_temperature;BMP_pressure;BME280_temperature;BME280_humidity;BME280_pressure;Samples;Min_cycle;Max_cycle;Signal;HPM_P1;HPM_P2
2022/05/24 00:01:16;;;;;;;2.17;1.70;;;;;;;19.05;41.46;98554.25;4377155;32;34514;-78
2022/05/24 00:03:44;;;;;;;3.85;1.80;;;;;;;19.32;40.70;98552.66;4376992;32;33422;-75
2022/05/24 00:06:12;;;;;;;2.33;1.62;;;;;;;19.59;39.74;98549.28;4377871;32;33996;-82
2022/05/24 00:08:41;;;;;;;2.42;1.60;;;;;;;19.31;41.21;98544.81;4377110;32;35289;-72
2022/05/24 00:11:10;;;;;;;3.20;1.70;;;;;;;19.14;40.88;98538.72;4375720;32;34491;-72
2022/05/24 00:13:38;;;;;;;3.72;1.80;;;;;;;19.12;41.11;98545.87;4377287;32;33414;-72
2022/05/24 00:16:06;;;;;;;2.53;1.58;;;;;;;19.06;41.35;98535.69;4377742;32;33799;-74
2022/05/24 00:18:34;;;;;;;5.97;2.28;;;;;;;18.92;41.82;98525.09;4375925;32;34416;-72
2022/05/24 00:21:04;;;;;;;6.60;1.70;;;;;;;18.90;41.89;98527.81;4388914;32;34463;-71
2022/05/24 00:23:32;;;;;;;3.72;1.55;;;;;;;19.03;41.72;98527.94;4387817;32;33524;-81
2022/05/24 00:26:06;;;;;;;2.65;1.60;;;;;;;18.99;42.09;98523.81;4377040;32;34789;-71
2022/05/24 00:28:35;;;;;;;2.33;1.60;;;;;;;18.74;41.87;98519.03;4375377;32;35036;-71
2022/05/24 00:31:03;;;;;;;3.12;1.77;;;;;;;18.74;42.32;98509.38;4376426;32;34546;-70
2022/05/24 00:33:34;;;;;;;4.97;1.65;;;;;;;19.09;41.11;98514.37;4388895;32;34317;-72
2022/05/24 00:36:02;;;;;;;3.35;1.77;;;;;;;19.00;41.35;98504.38;4391779;32;33044;-71
2022/05/24 00:38:36;;;;;;;2.87;1.90;;;;;;;18.33;42.99;98517.81;4377981;32;34914;-72
2022/05/24 00:41:22;;;;;;;4.18;2.00;;;;;;;18.49;42.55;98520.44;4380262;32;34529;-71
2022/05/24 00:44:02;;;;;;;3.60;1.70;;;;;;;18.65;42.30;98517.78;4380530;32;34128;-72
2022/05/24 00:46:42;;;;;;;7.07;1.70;;;;;;;19.24;40.85;98507.37;4392515;32;33886;-71
2022/05/24 00:49:20;;;;;;;2.58;1.62;;;;;;;18.99;41.64;98522.94;4380254;32;35630;-72
2022/05/24 00:51:52;;;;;;;4.62;1.77;;;;;;;18.64;42.43;98520.53;4394924;32;34424;-72
2022/05/24 00:54:20;;;;;;;3.35;1.75;;;;;;;18.73;42.37;98518.19;4380334;32;33462;-80
2022/05/24 00:57:03;;;;;;;2.92;1.80;;;;;;;18.81;42.26;98524.81;4394339;32;34756;-75
2022/05/24 00:59:56;;;;;;;3.35;1.60;;;;;;;18.73;42.57;98523.47;4379821;32;35118;-72
2022/05/24 01:02:23;;;;;;;3.03;1.73;;;;;;;18.29;43.60;98526.00;4374625;32;34665;-81
2022/05/24 01:04:53;;;;;;;6.12;1.80;;;;;;;18.54;43.09;98517.56;4380172;32;34129;-72
2022/05/24 01:07:21;;;;;;;2.70;1.75;;;;;;;18.32;43.49;98520.56;4392787;32;33971;-82
2022/05/24 01:09:58;;;;;;;3.83;1.80;;;;;;;18.52;43.06;98519.44;4394200;32;34839;-71
2022/05/24 01:12:39;;;;;;;2.95;1.90;;;;;;;18.00;44.35;98518.75;4393330;32;34458;-79
2022/05/24 01:15:08;;;;;;;4.35;2.10;;;;;;;18.41;43.91;98521.84;4380773;32;34461;-82
2022/05/24 01:17:37;;;;;;;2.47;1.77;;;;;;;18.68;43.21;98533.44;4393522;32;34024;-72
2022/05/24 01:20:06;;;;;;;6.12;1.90;;;;;;;18.22;44.04;98527.28;4380700;32;35127;-72
2022/05/24 01:22:49;;;;;;;2.35;1.77;;;;;;;18.41;43.44;98532.38;4392385;32;33380;-72
2022/05/24 01:25:20;;;;;;;2.92;2.00;;;;;;;18.24;43.85;98531.50;4394275;32;33561;-71
2022/05/24 01:27:47;;;;;;;2.70;1.90;;;;;;;18.14;44.27;98540.84;4393490;32;33665;-71
2022/05/24 01:30:16;;;;;;;3.40;2.10;;;;;;;18.08;44.55;98543.81;4394207;32;35775;-71
2022/05/24 01:38:20;;;;;;;4.57;2.25;;;;;;;18.26;43.83;98584.97;4392683;32;34073;-70
2022/05/24 01:40:49;;;;;;;2.30;1.70;;;;;;;18.07;44.61;98607.97;4391137;32;34107;-71
2022/05/24 01:43:18;;;;;;;2.45;1.73;;;;;;;18.04;44.14;98605.53;4379714;32;34349;-71
2022/05/24 01:45:52;;;;;;;3.80;1.77;;;;;;;17.97;45.20;98591.81;4380369;32;33444;-71
2022/05/24 01:48:26;;;;;;;2.22;1.60;;;;;;;17.92;45.80;98593.84;4391921;32;33781;-71
2022/05/24 01:50:55;;;;;;;5.20;2.00;;;;;;;18.25;45.13;98575.37;4379957;32;35107;-71
2022/05/24 01:53:29;;;;;;;3.60;1.87;;;;;;;18.18;45.68;98537.13;4393464;32;34424;-82
2022/05/24 01:56:20;;;;;;;2.35;1.80;;;;;;;17.50;48.08;98485.41;4371881;32;33395;-71
2022/05/24 01:58:51;;;;;;;5.10;1.85;;;;;;;17.02;50.42;98508.06;4379730;32;33929;-71
2022/05/24 02:01:41;;;;;;;4.40;2.00;;;;;;;17.06;50.54;98530.66;4393172;32;36005;-71
2022/05/24 02:04:09;;;;;;;3.15;2.10;;;;;;;17.14;51.77;98523.22;4393033;32;34573;-81
2022/05/24 02:06:38;;;;;;;2.92;2.10;;;;;;;17.25;52.74;98536.69;4393932;32;34211;-71
2022/05/24 02:09:07;;;;;;;3.97;2.28;;;;;;;17.12;53.66;98556.66;4392959;32;34136;-72
2022/05/24 02:11:35;;;;;;;5.72;2.50;;;;;;;17.03;57.09;98567.66;4393716;32;34555;-71
2022/05/24 02:14:14;;;;;;;5.75;2.70;;;;;;;17.00;56.50;98573.03;4378285;32;34583;-71
2022/05/24 02:16:52;;;;;;;4.47;2.42;;;;;;;16.38;58.76;98583.84;4393879;32;33441;-75
2022/05/24 02:19:21;;;;;;;3.17;2.17;;;;;;;17.11;60.83;98590.91;4391853;32;34631;-80
2022/05/24 02:21:58;;;;;;;2.85;2.40;;;;;;;16.75;60.03;98594.41;4392632;32;34930;-71
2022/05/24 02:24:26;;;;;;;10.07;2.70;;;;;;;16.43;62.33;98599.37;4393059;32;34547;-71
2022/05/24 02:26:57;;;;;;;4.30;2.62;;;;;;;15.74;65.48;98603.31;4379514;32;35542;-71
2022/05/24 02:29:25;;;;;;;3.53;2.58;;;;;;;15.57;66.45;98617.16;4391627;32;34771;-71
2022/05/24 02:31:53;;;;;;;4.53;2.83;;;;;;;15.97;65.46;98619.84;4392862;32;35014;-72
2022/05/24 02:34:21;;;;;;;9.32;2.85;;;;;;;15.66;67.43;98614.16;4392673;32;34517;-71
2022/05/24 02:36:49;;;;;;;6.72;3.05;;;;;;;15.66;67.08;98619.41;4393763;32;34125;-72
2022/05/24 02:39:17;;;;;;;4.22;2.65;;;;;;;15.59;69.48;98622.37;4392901;32;34006;-71
2022/05/24 02:41:45;;;;;;;6.22;3.37;;;;;;;14.97;69.69;98624.91;4392744;32;35985;-72
2022/05/24 02:44:16;;;;;;;7.45;3.35;;;;;;;15.04;73.88;98633.38;4393010;32;34585;-71
2022/05/24 02:46:45;;;;;;;5.03;3.45;;;;;;;15.45;73.30;98630.81;4393601;32;34791;-72
2022/05/24 02:49:14;;;;;;;10.50;3.45;;;;;;;15.27;75.14;98629.81;4393115;32;33089;-72
2022/05/24 02:51:44;;;;;;;5.68;3.65;;;;;;;14.73;77.41;98632.81;4393301;32;35781;-71
2022/05/24 02:54:11;;;;;;;5.93;3.75;;;;;;;14.25;82.16;98630.28;4392850;32;34513;-71
2022/05/24 02:56:40;;;;;;;6.55;3.58;;;;;;;14.70;79.00;98626.81;4393555;32;33524;-71
2022/05/24 02:59:08;;;;;;;5.68;3.70;;;;;;;14.22;82.43;98625.97;4391833;32;33412;-72
2022/05/24 03:01:35;;;;;;;10.68;4.22;;;;;;;14.89;77.09;98633.06;4393389;32;35034;-72
2022/05/24 03:04:04;;;;;;;6.40;3.72;;;;;;;14.16;82.55;98631.47;4392435;32;34473;-71
2022/05/24 03:09:33;;;;;;;8.85;4.28;;;;;;;15.08;76.55;98627.94;4393471;32;34258;-70
2022/05/24 03:09:35;;;;;;;11.10;4.37;;;;;;;14.87;78.60;98613.91;4387150;32;33842;-70
2022/05/24 03:14:53;;;;;;;6.80;3.62;;;;;;;14.27;80.88;98592.63;4384115;32;34764;-70
2022/05/24 03:17:22;;;;;;;9.20;4.25;;;;;;;15.00;75.52;98597.69;4385966;32;33680;-70
2022/05/24 03:19:51;;;;;;;7.15;4.15;;;;;;;14.56;76.83;98590.69;4376304;32;33905;-79
2022/05/24 03:22:19;;;;;;;7.45;4.37;;;;;;;14.59;78.20;98598.44;4392042;32;34784;-71
2022/05/24 03:24:47;;;;;;;7.53;4.05;;;;;;;15.39;73.35;98602.19;4390663;32;35180;-70
2022/05/24 03:27:17;;;;;;;7.82;4.20;;;;;;;14.93;76.43;98610.19;4387185;32;32765;-71
2022/05/24 03:29:47;;;;;;;6.78;3.87;;;;;;;15.21;75.11;98614.31;4375447;32;33932;-72
2022/05/24 03:32:17;;;;;;;10.88;4.60;;;;;;;15.31;74.93;98634.00;4378518;32;35030;-72
2022/05/24 03:34:45;;;;;;;6.87;3.92;;;;;;;14.65;78.87;98652.34;4392400;32;34412;-73
2022/05/24 03:37:14;;;;;;;6.22;3.83;;;;;;;15.46;74.87;98663.97;4367141;32;33641;-71
2022/05/24 03:39:41;;;;;;;6.70;4.20;;;;;;;14.36;81.84;98672.63;4391043;32;33396;-81
2022/05/24 03:42:09;;;;;;;7.68;4.68;;;;;;;14.30;82.22;98670.25;4367121;32;34311;-77
2022/05/24 03:44:37;;;;;;;6.97;4.47;;;;;;;14.20;83.61;98664.47;4392057;32;34379;-72
2022/05/24 03:47:05;;;;;;;5.62;4.10;;;;;;;14.70;80.99;98647.78;4378550;32;33711;-71
2022/05/24 03:49:33;;;;;;;10.80;3.80;;;;;;;15.06;77.74;98634.16;4378660;32;34074;-82
2022/05/24 03:52:02;;;;;;;8.70;3.97;;;;;;;15.01;75.79;98625.62;4379086;32;34272;-76
2022/05/24 03:54:30;;;;;;;8.70;4.25;;;;;;;15.16;74.19;98643.38;4390897;32;34281;-72
2022/05/24 03:59:45;;;;;;;8.85;4.75;;;;;;;14.77;76.35;98644.87;4392318;32;34783;-73
2022/05/24 04:02:13;;;;;;;6.68;3.75;;;;;;;14.50;78.13;98638.91;4390778;32;35773;-79
2022/05/24 04:04:41;;;;;;;5.57;3.55;;;;;;;14.98;74.78;98637.94;4391806;32;34545;-72
2022/05/24 04:07:10;;;;;;;5.85;3.75;;;;;;;14.89;75.38;98654.03;4392529;32;33350;-73
2022/05/24 04:09:37;;;;;;;6.68;4.20;;;;;;;15.68;72.15;98656.91;4392016;32;33774;-83
2022/05/24 04:12:07;;;;;;;6.97;4.43;;;;;;;15.57;72.81;98661.78;4392475;32;35065;-72
2022/05/24 04:14:35;;;;;;;5.90;4.20;;;;;;;14.69;76.77;98656.59;4389956;32;35085;-77
2022/05/24 04:17:03;;;;;;;5.95;4.10;;;;;;;14.55;77.53;98647.44;4380758;32;33466;-71
2022/05/24 04:19:31;;;;;;;5.50;3.83;;;;;;;14.71;76.59;98660.00;4392729;32;34008;-84
2022/05/24 04:21:59;;;;;;;6.78;4.30;;;;;;;15.05;74.29;98656.03;4393690;32;34928;-71
2022/05/24 04:24:27;;;;;;;6.65;4.00;;;;;;;14.75;76.07;98662.44;4392154;32;35129;-71
2022/05/24 04:26:57;;;;;;;6.45;3.95;;;;;;;15.11;74.68;98666.31;4394285;32;33334;-71
2022/05/24 04:29:25;;;;;;;6.47;4.20;;;;;;;14.95;75.72;98671.31;4393482;32;33956;-78
2022/05/24 04:31:52;;;;;;;8.82;4.37;;;;;;;14.62;77.48;98665.59;4394063;32;35046;-72
2022/05/24 04:34:21;;;;;;;6.82;4.47;;;;;;;14.14;79.42;98670.78;4392576;32;35095;-86
2022/05/24 04:36:49;;;;;;;6.22;4.12;;;;;;;15.22;74.84;98671.12;4394328;32;33496;-72
2022/05/24 04:39:17;;;;;;;6.60;4.22;;;;;;;14.74;76.46;98662.50;4393600;32;33907;-77
2022/05/24 04:44:34;;;;;;;6.93;4.78;;;;;;;14.38;78.60;98671.66;4393369;32;35080;-72
2022/05/24 04:47:08;;;;;;;7.87;4.95;;;;;;;14.48;78.81;98680.03;4394121;32;33340;-72
2022/05/24 04:49:39;;;;;;;7.28;4.70;;;;;;;14.40;78.32;98684.72;4379612;32;33126;-71
2022/05/24 04:52:10;;;;;;;12.02;5.75;;;;;;;14.44;79.03;98675.81;4393531;32;35519;-72
2022/05/24 04:54:40;;;;;;;9.02;4.68;;;;;;;14.45;80.29;98689.75;4368211;32;33986;-77
2022/05/24 04:57:09;;;;;;;10.38;4.50;;;;;;;14.93;77.18;98683.59;4380661;32;34060;-85
2022/05/24 04:59:37;;;;;;;7.47;5.05;;;;;;;14.88;76.50;98678.53;4380727;32;33871;-87
2022/05/24 05:02:06;;;;;;;8.93;5.25;;;;;;;14.02;82.42;98666.00;4392812;32;34339;-85
2022/05/24 05:04:35;;;;;;;6.75;4.53;;;;;;;14.29;80.56;98669.38;4393060;32;34644;-72
2022/05/24 05:07:04;;;;;;;8.27;4.95;;;;;;;14.76;77.74;98668.53;4393277;32;34358;-88
2022/05/24 05:09:38;;;;;;;8.70;4.25;;;;;;;14.91;77.43;98672.31;4379655;32;34821;-75
2022/05/24 05:12:08;;;;;;;6.82;4.47;;;;;;;14.67;78.30;98668.91;4380313;32;35762;-71
2022/05/24 05:14:37;;;;;;;10.68;4.87;;;;;;;14.82;78.04;98672.69;4393203;32;34441;-71
2022/05/24 05:17:10;;;;;;;8.68;5.10;;;;;;;14.88;76.91;98677.69;4394083;32;34483;-85
2022/05/24 05:19:39;;;;;;;10.73;5.47;;;;;;;14.52;78.48;98676.38;4379554;32;34834;-72
2022/05/24 05:22:07;;;;;;;9.65;5.00;;;;;;;14.31;80.75;98672.81;4393307;32;35889;-81
2022/05/24 05:24:36;;;;;;;6.60;4.62;;;;;;;14.41;80.43;98673.31;4393383;32;35270;-90
2022/05/24 05:27:04;;;;;;;8.27;5.25;;;;;;;14.49;79.64;98681.75;4380045;32;33663;-74
2022/05/24 05:32:30;;;;;;;8.60;5.50;;;;;;;14.36;79.70;98686.56;4381848;32;35993;-70
2022/05/24 05:34:59;;;;;;;11.35;5.62;;;;;;;14.54;80.00;98690.28;4391443;32;34517;-70
2022/05/24 05:37:29;;;;;;;8.13;5.28;;;;;;;14.46;79.50;98687.09;4379783;32;33476;-94
2022/05/24 05:39:57;;;;;;;5.95;4.18;;;;;;;14.43;79.03;98691.59;4393125;32;33962;-69
2022/05/24 05:42:25;;;;;;;8.13;5.20;;;;;;;14.60;78.27;98682.22;4380396;32;35040;-69
2022/05/24 05:44:53;;;;;;;7.18;4.87;;;;;;;14.71;77.92;98679.19;4392754;32;34552;-71
2022/05/24 05:47:21;;;;;;;8.70;5.70;;;;;;;14.58;78.48;98681.41;4393412;32;33581;-88
2022/05/24 05:49:49;;;;;;;8.88;5.53;;;;;;;14.27;80.57;98686.91;4379321;32;34846;-72
2022/05/24 05:52:18;;;;;;;8.13;5.57;;;;;;;13.96;84.05;98694.97;4392789;32;34979;-70
2022/05/24 05:54:46;;;;;;;11.02;6.35;;;;;;;13.79;86.79;98690.34;4392794;32;34445;-70
2022/05/24 05:57:15;;;;;;;9.40;5.68;;;;;;;14.25;84.38;98693.97;4392030;32;33125;-71
2022/05/24 05:59:45;;;;;;;11.82;5.95;;;;;;;14.41;82.69;98684.63;4392829;32;33177;-71
2022/05/24 06:02:13;;;;;;;9.15;5.40;;;;;;;14.37;82.63;98687.44;4392774;32;34965;-71
2022/05/24 06:04:41;;;;;;;9.55;6.00;;;;;;;13.96;84.14;98687.12;4393334;32;35238;-72
2022/05/24 06:07:10;;;;;;;11.15;6.32;;;;;;;14.21;83.62;98695.00;4393894;32;34251;-72
2022/05/24 06:09:38;;;;;;;9.15;5.65;;;;;;;14.50;83.17;98693.91;4391312;32;34824;-72
2022/05/24 06:12:06;;;;;;;8.15;5.90;;;;;;;14.49;83.34;98694.84;4393023;32;35048;-72
2022/05/24 06:14:34;;;;;;;8.93;5.75;;;;;;;14.97;80.12;98693.06;4393127;32;34630;-72
2022/05/24 06:17:26;;;;;;;9.60;5.80;;;;;;;14.61;80.97;98685.69;4382144;32;33646;-72
2022/05/24 06:19:54;;;;;;;10.43;5.93;;;;;;;14.54;81.52;98695.53;4391491;32;33916;-75
2022/05/24 06:22:22;;;;;;;9.20;5.37;;;;;;;14.46;82.90;98687.09;4393725;32;34964;-91
2022/05/24 06:24:50;;;;;;;10.45;5.30;;;;;;;14.60;81.26;98682.22;4392837;32;35238;-79
2022/05/24 06:27:22;;;;;;;9.48;6.00;;;;;;;15.07;80.16;98690.91;4392885;32;33500;-78
2022/05/24 06:29:50;;;;;;;11.55;6.12;;;;;;;15.01;80.01;98685.94;4393184;32;34656;-74
2022/05/24 06:32:18;;;;;;;7.80;5.57;;;;;;;15.17;79.49;98684.41;4393455;32;35879;-71
2022/05/24 06:34:51;;;;;;;9.65;6.22;;;;;;;15.20;78.86;98688.69;4379451;32;35290;-93
2022/05/24 06:37:20;;;;;;;9.85;6.18;;;;;;;14.58;82.12;98686.66;4379526;32;32527;-72
2022/05/24 06:39:50;;;;;;;10.93;5.85;;;;;;;14.77;81.22;98701.66;4393322;32;34905;-73
2022/05/24 06:42:18;;;;;;;7.53;5.55;;;;;;;15.07;78.93;98696.16;4392896;32;35008;-73
2022/05/24 06:44:46;;;;;;;12.55;5.78;;;;;;;15.13;79.44;98695.94;4392722;32;35246;-72
2022/05/24 06:47:14;;;;;;;9.15;6.12;;;;;;;15.50;77.33;98708.41;4393631;32;34371;-70
2022/05/24 06:49:49;;;;;;;8.48;5.50;;;;;;;15.21;79.00;98706.94;4392887;32;34762;-71
2022/05/24 06:52:17;;;;;;;7.80;5.35;;;;;;;15.69;76.49;98713.75;4380181;32;35919;-71
2022/05/24 06:54:44;;;;;;;8.85;5.90;;;;;;;15.12;77.91;98718.69;4378441;32;35338;-92
2022/05/24 06:57:13;;;;;;;10.05;6.15;;;;;;;14.82;80.47;98722.47;4391753;32;34078;-88
2022/05/24 07:02:28;;;;;;;9.85;6.25;;;;;;;15.05;78.14;98721.59;4392805;32;35998;-71
2022/05/24 07:05:17;;;;;;;11.48;5.47;;;;;;;15.32;78.17;98719.66;4393040;32;34486;-71
2022/05/24 07:07:46;;;;;;;9.15;5.68;;;;;;;14.60;81.46;98715.44;4380075;32;33535;-72
2022/05/24 07:10:21;;;;;;;9.25;6.68;;;;;;;15.46;78.15;98716.47;4392572;32;34040;-88
2022/05/24 07:12:58;;;;;;;10.35;6.28;;;;;;;15.22;79.48;98716.53;4393535;32;35520;-71
2022/05/24 07:15:27;;;;;;;15.60;7.28;;;;;;;15.76;76.59;98717.03;4392074;32;34533;-72
2022/05/24 07:17:56;;;;;;;11.77;7.03;;;;;;;15.28;81.39;98713.69;4392266;32;33590;-71
2022/05/24 07:20:25;;;;;;;10.25;7.53;;;;;;;15.90;77.30;98716.41;4391088;32;33655;-72
2022/05/24 07:22:54;;;;;;;10.68;6.10;;;;;;;15.88;76.55;98713.00;4392624;32;35058;-71
2022/05/24 07:25:22;;;;;;;8.73;6.03;;;;;;;15.56;78.03;98717.78;4379161;32;34645;-86
2022/05/24 07:27:50;;;;;;;9.55;6.12;;;;;;;15.59;76.46;98716.84;4393438;32;33427;-89
2022/05/24 07:30:18;;;;;;;8.98;6.43;;;;;;;15.82;76.25;98723.78;4392725;32;34806;-71
2022/05/24 07:32:47;;;;;;;8.93;5.87;;;;;;;15.15;81.54;98723.78;4393010;32;35120;-88
2022/05/24 07:35:15;;;;;;;7.87;5.93;;;;;;;15.59;77.69;98717.69;4392450;32;35282;-71
2022/05/24 07:37:43;;;;;;;9.63;7.05;;;;;;;15.70;77.80;98720.69;4392420;32;34383;-73
2022/05/24 07:45:48;;;;;;;8.97;6.20;;;;;;;16.03;75.34;98708.88;4386707;32;34830;-88
2022/05/24 07:48:17;;;;;;;11.25;7.03;;;;;;;16.31;74.21;98711.16;4378381;32;33348;-86
2022/05/24 07:50:47;;;;;;;10.60;6.18;;;;;;;15.88;76.66;98713.00;4392105;32;34014;-88
2022/05/24 07:53:15;;;;;;;10.40;7.55;;;;;;;16.30;75.51;98723.41;4392078;32;34985;-87
2022/05/24 07:55:44;;;;;;;12.45;9.20;;;;;;;16.10;75.65;98718.19;4392138;32;34517;-87
2022/05/24 07:58:13;;;;;;;9.73;6.75;;;;;;;16.25;75.64;98724.53;4379172;32;33688;-87
2022/05/24 08:00:41;;;;;;;10.10;6.43;;;;;;;16.41;75.07;98722.97;4392834;32;34688;-88
2022/05/24 08:03:10;;;;;;;10.13;7.10;;;;;;;16.14;77.42;98734.69;4388723;32;35042;-81
2022/05/24 08:05:38;;;;;;;11.48;6.53;;;;;;;15.73;77.72;98736.31;4376779;32;34374;-88
2022/05/24 08:08:08;;;;;;;10.90;6.90;;;;;;;15.95;78.21;98739.84;4377125;32;33550;-90
2022/05/24 08:10:38;;;;;;;8.60;6.35;;;;;;;16.04;76.47;98729.84;4364128;32;34131;-83
2022/05/24 08:13:09;;;;;;;10.25;7.10;;;;;;;16.27;74.41;98727.94;4378820;32;34257;-78
2022/05/24 08:15:38;;;;;;;9.50;6.55;;;;;;;16.43;74.37;98730.75;4378294;32;34437;-89
2022/05/24 08:18:06;;;;;;;11.07;6.68;;;;;;;16.61;74.64;98729.09;4378343;32;34421;-89
2022/05/24 08:20:36;;;;;;;9.13;6.65;;;;;;;16.40;75.78;98725.66;4390569;32;34861;-80
2022/05/24 08:23:05;;;;;;;10.82;6.45;;;;;;;16.46;74.62;98723.59;4391463;32;33988;-78
2022/05/24 08:25:38;;;;;;;7.90;5.90;;;;;;;16.76;74.21;98717.88;4391674;32;34427;-69
2022/05/24 08:28:07;;;;;;;9.45;6.18;;;;;;;17.03;71.99;98722.81;4390478;32;34131;-69
2022/05/24 08:30:37;;;;;;;8.82;6.35;;;;;;;16.81;73.04;98726.41;4377791;32;32431;-70
2022/05/24 08:33:06;;;;;;;11.32;5.93;;;;;;;16.77;74.54;98730.09;4388318;32;35031;-69
2022/05/24 08:35:35;;;;;;;10.02;6.50;;;;;;;16.68;75.83;98727.91;4374783;32;32240;-69
2022/05/24 08:38:04;;;;;;;10.25;7.07;;;;;;;17.15;74.43;98730.09;4376417;32;32947;-86
2022/05/24 08:40:37;;;;;;;10.02;6.85;;;;;;;17.43;73.56;98731.41;4374995;32;33910;-82
2022/05/24 08:43:11;;;;;;;10.63;6.03;;;;;;;17.67;71.37;98731.16;4376250;32;35128;-70
2022/05/24 08:48:51;;;;;;;9.20;5.75;;;;;;;18.46;71.16;98715.72;4376941;32;33632;-72
2022/05/24 08:51:47;;;;;;;9.00;5.40;;;;;;;18.56;69.89;98723.97;4374914;32;33061;-70
2022/05/24 08:54:19;;;;;;;11.12;5.68;;;;;;;18.29;69.43;98718.38;4376093;32;35935;-88
2022/05/24 08:56:59;;;;;;;10.05;5.32;;;;;;;18.95;66.46;98722.78;4387313;32;34414;-76
2022/05/24 08:59:34;;;;;;;8.52;5.62;;;;;;;18.90;66.71;98717.75;4375901;32;33286;-83
2022/05/24 09:02:04;;;;;;;7.40;4.97;;;;;;;19.02;65.67;98725.94;4375463;32;34802;-74
2022/05/24 09:04:33;;;;;;;7.60;5.47;;;;;;;18.95;65.37;98722.78;4390356;32;34488;-81
2022/05/24 09:07:24;;;;;;;9.68;6.37;;;;;;;18.99;63.96;98718.16;4379036;32;33160;-72
2022/05/24 09:10:04;;;;;;;8.27;5.12;;;;;;;19.22;67.58;98725.69;4378276;32;33171;-88
2022/05/24 09:12:54;;;;;;;9.32;5.68;;;;;;;18.99;64.63;98726.09;4390401;32;33953;-73
2022/05/24 09:15:46;;;;;;;7.78;5.22;;;;;;;18.13;66.00;98734.13;4379008;32;35192;-89
2022/05/24 09:18:44;;;;;;;9.07;4.68;;;;;;;18.90;65.71;98730.97;4379709;32;34689;-82
2022/05/24 09:21:20;;;;;;;12.43;5.03;;;;;;;19.88;60.66;98734.28;4361624;32;33399;-83
2022/05/24 09:23:55;;;;;;;7.40;4.62;;;;;;;20.71;58.35;98728.44;4389759;32;33871;-77
2022/05/24 09:26:24;;;;;;;7.95;4.18;;;;;;;20.63;59.75;98732.44;4389800;32;34964;-72
2022/05/24 09:28:55;;;;;;;6.32;4.40;;;;;;;21.10;59.74;98724.22;4379314;32;35275;-70
2022/05/24 09:31:38;;;;;;;7.65;4.62;;;;;;;21.69;55.51;98722.19;4389362;32;33429;-70
2022/05/24 09:34:23;;;;;;;9.38;4.75;;;;;;;22.06;56.52;98726.78;4377937;32;33962;-86
2022/05/24 09:36:56;;;;;;;6.93;4.37;;;;;;;22.18;53.35;98727.75;4389096;32;35048;-76
2022/05/24 09:39:35;;;;;;;8.45;4.72;;;;;;;21.48;56.50;98731.53;4376890;32;34341;-74
2022/05/24 09:42:07;;;;;;;5.97;4.18;;;;;;;22.12;56.39;98727.22;4389390;32;34490;-78
2022/05/24 09:44:46;;;;;;;11.70;4.03;;;;;;;22.38;55.56;98735.25;4377823;32;33800;-73
2022/05/24 09:47:24;;;;;;;6.20;4.60;;;;;;;21.57;54.90;98726.47;4389740;32;35005;-75
2022/05/24 09:49:52;;;;;;;6.80;3.90;;;;;;;21.27;58.43;98739.88;4376734;32;35266;-80
2022/05/24 09:52:20;;;;;;;6.72;3.70;;;;;;;21.54;57.49;98734.63;4378754;32;33338;-70
2022/05/24 09:54:54;;;;;;;6.47;3.40;;;;;;;21.15;55.56;98738.03;4375315;32;34658;-90
2022/05/24 09:57:28;;;;;;;5.35;3.75;;;;;;;21.52;54.42;98733.88;4366993;32;34977;-70
2022/05/24 09:59:59;;;;;;;4.62;3.33;;;;;;;22.42;51.76;98733.22;4377638;32;35246;-68
2022/05/24 10:02:32;;;;;;;11.85;3.70;;;;;;;22.58;52.21;98731.19;4378038;32;32414;-70
2022/05/24 10:05:03;;;;;;;5.85;3.60;;;;;;;22.33;52.52;98737.34;4364719;32;34659;-74
2022/05/24 10:07:33;;;;;;;6.75;3.70;;;;;;;23.07;52.38;98727.72;4378685;32;35014;-70
2022/05/24 10:10:22;;;;;;;6.18;3.42;;;;;;;22.67;51.67;98730.53;4375773;32;34573;-70
2022/05/24 10:13:02;;;;;;;8.63;3.65;;;;;;;22.78;54.60;98734.25;4388628;32;33553;-70
2022/05/24 10:16:04;;;;;;;4.10;3.08;;;;;;;22.98;52.05;98732.84;4377982;32;33851;-70
2022/05/24 10:18:44;;;;;;;5.47;3.50;;;;;;;23.16;48.32;98739.50;4378462;32;36030;-70
2022/05/24 10:21:15;;;;;;;6.40;3.35;;;;;;;22.91;50.61;98733.25;4377369;32;34547;-84
2022/05/24 10:23:45;;;;;;;5.00;3.25;;;;;;;22.72;51.19;98740.84;4369410;32;278215;-70
2022/05/24 10:26:41;;;;;;;5.93;3.25;;;;;;;22.84;50.60;98732.00;4377791;32;33977;-69
2022/05/24 10:29:21;;;;;;;5.55;3.60;;;;;;;23.41;48.95;98729.75;4378475;32;34891;-71
2022/05/24 10:31:56;;;;;;;8.05;3.33;;;;;;;24.13;47.21;98715.53;4378924;32;34469;-69
2022/05/24 10:40:26;;;;;;;8.52;3.95;;;;;;;23.44;47.24;98716.25;4379949;32;34996;-70
2022/05/24 10:43:09;;;;;;;5.97;3.00;;;;;;;23.31;48.90;98713.63;4378322;32;34439;-70
2022/05/24 10:45:50;;;;;;;4.62;2.92;;;;;;;23.72;49.29;98714.16;4377995;32;33371;-70
2022/05/24 10:48:37;;;;;;;4.47;2.72;;;;;;;24.06;45.24;98712.50;4391641;32;33800;-70
2022/05/24 10:51:35;;;;;;;6.43;3.80;;;;;;;23.82;46.92;98720.53;4390725;32;35121;-71
2022/05/24 10:54:14;;;;;;;7.55;3.80;;;;;;;24.41;46.22;98719.56;4392537;32;35306;-70
2022/05/24 10:56:52;;;;;;;6.18;3.37;;;;;;;24.69;47.91;98718.28;4392480;32;33997;-92
2022/05/24 10:59:23;;;;;;;4.53;3.25;;;;;;;25.32;43.72;98720.37;4390658;32;34917;-70
2022/05/24 11:01:59;;;;;;;5.65;3.03;;;;;;;24.70;46.55;98719.97;4392060;32;36002;-71
2022/05/24 11:04:42;;;;;;;6.70;3.12;;;;;;;24.33;44.84;98711.34;4379098;32;35185;-71
2022/05/24 11:07:14;;;;;;;5.50;3.10;;;;;;;24.13;45.70;98699.59;4377122;32;33432;-70
2022/05/24 11:09:53;;;;;;;4.72;2.83;;;;;;;24.66;48.18;98691.91;4378435;32;33927;-70
2022/05/24 11:12:31;;;;;;;5.82;3.25;;;;;;;24.83;46.44;98697.69;4378748;32;35160;-71
2022/05/24 11:15:13;;;;;;;6.90;3.70;;;;;;;23.72;48.79;98700.88;4378107;32;34385;-71
2022/05/24 11:17:41;;;;;;;6.20;3.80;;;;;;;24.86;44.81;98692.13;4378701;32;32021;-70
2022/05/24 11:20:10;;;;;;;4.55;3.05;;;;;;;23.64;49.31;98698.78;4389599;32;34658;-70
2022/05/24 11:23:04;;;;;;;7.15;3.45;;;;;;;24.99;45.22;98692.84;4391294;32;33819;-70
2022/05/24 11:25:59;;;;;;;5.00;3.85;;;;;;;24.87;47.42;98696.50;4390998;32;34422;-70
2022/05/24 11:28:32;;;;;;;6.82;3.60;;;;;;;25.06;45.85;98696.69;4362063;32;33699;-70
2022/05/24 11:31:38;;;;;;;6.12;4.07;;;;;;;24.65;47.07;98705.31;4376469;32;34707;-70
2022/05/24 11:34:12;;;;;;;7.90;4.00;;;;;;;23.95;47.15;98691.22;4386678;32;194950;-70
2022/05/24 11:36:43;;;;;;;4.57;3.20;;;;;;;24.58;45.66;98689.00;4378727;32;34398;-70
2022/05/24 11:39:29;;;;;;;5.65;3.90;;;;;;;24.66;46.59;98694.56;4379101;32;32201;-70
2022/05/24 11:42:16;;;;;;;;;;;;;;;24.58;45.48;98689.00;4378911;32;33935;-70
2022/05/24 11:44:43;;;;;;;6.50;3.85;;;;;;;24.84;46.51;98684.25;4393298;32;36197;-71
2022/05/24 11:47:35;;;;;;;7.03;4.12;;;;;;;24.18;44.37;98697.41;4390431;32;34356;-71
2022/05/24 11:50:07;;;;;;;8.35;3.10;;;;;;;24.60;44.89;98687.03;4370696;32;33057;-70
2022/05/24 11:52:41;;;;;;;5.60;3.62;;;;;;;24.26;50.29;98696.81;4378853;32;34015;-71
2022/05/24 11:55:29;;;;;;;6.18;3.87;;;;;;;25.15;44.50;98697.78;4393184;32;36003;-71
2022/05/24 11:58:05;;;;;;;5.85;3.15;;;;;;;24.50;44.58;98691.41;4392285;32;33940;-71
2022/05/24 12:00:33;;;;;;;5.85;3.60;;;;;;;24.74;46.05;98692.16;4379028;32;33428;-70
2022/05/24 12:09:19;;;;;;;4.80;3.22;;;;;;;24.04;45.34;98672.72;4391918;32;34406;-71
2022/05/24 12:11:47;;;;;;;6.12;3.30;;;;;;;24.21;44.98;98674.09;4392265;32;34303;-71
2022/05/24 12:14:36;;;;;;;10.23;4.68;;;;;;;24.34;47.01;98676.63;4379385;32;35005;-71
2022/05/24 12:17:04;;;;;;;3.87;2.90;;;;;;;24.12;47.71;98682.75;4378657;32;34835;-76
2022/05/24 12:19:35;;;;;;;4.55;3.10;;;;;;;24.26;43.12;98684.34;4391939;32;35244;-70
2022/05/24 12:22:06;;;;;;;4.72;3.45;;;;;;;24.62;44.68;98676.28;4392046;32;33697;-70
2022/05/24 12:24:40;;;;;;;4.65;3.03;;;;;;;24.74;43.48;98676.16;4367027;32;33268;-70
2022/05/24 12:27:23;;;;;;;11.50;3.22;;;;;;;24.73;44.77;98674.47;4391735;32;35092;-84
2022/05/24 12:29:58;;;;;;;6.68;3.28;;;;;;;24.44;44.40;98670.56;4392601;32;34613;-73
2022/05/24 12:32:30;;;;;;;4.90;3.00;;;;;;;24.10;48.74;98675.87;4376887;32;34239;-86
2022/05/24 12:35:08;;;;;;;4.85;3.30;;;;;;;24.66;45.19;98675.09;4366896;32;34689;-70
2022/05/24 12:37:52;;;;;;;5.10;3.22;;;;;;;24.47;43.48;98662.34;4381420;32;35099;-71